sensor_id;sensor_type;location;lat;lon;timestamp;temperature;humidity
13354;DHT22;6746;50.892;4.064;2022-08-01T00:01:20;20.90;99.90
13354;DHT22;6746;50.892;4.064;2022-08-01T00:04:08;21.00;99.90
13354;DHT22;6746;50.892;4.064;2022-08-01T00:06:56;20.90;99.90
13354;DHT22;6746;50.892;4.064;2022-08-01T00:09:40;20.90;99.90
13354;DHT22;6746;50.892;4.064;2022-08-01T00:12:18;20.90;99.90
13354;DHT22;6746;50.892;4.064;2022-08-01T00:15:02;20.90;99.90
13354;DHT22;6746;50.892;4.064;2022-08-01T00:17:40;20.90;99.90
13354;DHT22;6746;50.892;4.064;2022-08-01T00:20:20;20.80;99.90
13354;DHT22;6746;50.892;4.064;2022-08-01T00:22:58;20.70;99.90
13354;DHT22;6746;50.892;4.064;2022-08-01T00:25:39;20.70;99.90
13354;DHT22;6746;50.892;4.064;2022-08-01T00:28:17;20.60;99.90
13354;DHT22;6746;50.892;4.064;2022-08-01T00:31:03;20.70;99.90
13354;DHT22;6746;50.892;4.064;2022-08-01T00:33:42;20.70;99.90
13354;DHT22;6746;50.892;4.064;2022-08-01T00:36:30;20.70;99.90
13354;DHT22;6746;50.892;4.064;2022-08-01T00:39:08;20.70;99.90
13354;DHT22;6746;50.892;4.064;2022-08-01T00:41:46;20.70;99.90
13354;DHT22;6746;50.892;4.064;2022-08-01T00:44:24;20.60;99.90
13354;DHT22;6746;50.892;4.064;2022-08-01T00:47:03;20.60;99.90
13354;DHT22;6746;50.892;4.064;2022-08-01T00:49:44;20.60;99.90
13354;DHT22;6746;50.892;4.064;2022-08-01T00:52:22;20.50;99.90
13354;DHT22;6746;50.892;4.064;2022-08-01T00:55:05;20.50;99.90
13354;DHT22;6746;50.892;4.064;2022-08-01T00:57:44;20.50;99.90
13354;DHT22;6746;50.892;4.064;2022-08-01T01:00:22;20.50;99.90
13354;DHT22;6746;50.892;4.064;2022-08-01T01:03:00;20.40;99.90
13354;DHT22;6746;50.892;4.064;2022-08-01T01:11:47;20.30;99.90
13354;DHT22;6746;50.892;4.064;2022-08-01T01:14:53;20.30;99.90
13354;DHT22;6746;50.892;4.064;2022-08-01T01:17:45;20.30;99.90
13354;DHT22;6746;50.892;4.064;2022-08-01T01:20:44;20.30;99.90
13354;DHT22;6746;50.892;4.064;2022-08-01T01:26:31;20.30;99.90
13354;DHT22;6746;50.892;4.064;2022-08-01T01:32:25;20.20;99.90
13354;DHT22;6746;50.892;4.064;2022-08-01T01:34:58;20.20;99.90
13354;DHT22;6746;50.892;4.064;2022-08-01T01:37:46;20.20;99.90
13354;DHT22;6746;50.892;4.064;2022-08-01T01:40:24;20.20;99.90
13354;DHT22;6746;50.892;4.064;2022-08-01T01:43:02;20.30;99.90
13354;DHT22;6746;50.892;4.064;2022-08-01T01:45:50;20.20;99.90
13354;DHT22;6746;50.892;4.064;2022-08-01T01:48:28;20.20;99.90
13354;DHT22;6746;50.892;4.064;2022-08-01T01:51:07;20.20;99.90
13354;DHT22;6746;50.892;4.064;2022-08-01T01:53:48;20.20;99.90
13354;DHT22;6746;50.892;4.064;2022-08-01T01:56:26;20.20;99.90
13354;DHT22;6746;50.892;4.064;2022-08-01T01:59:07;20.20;99.90
13354;DHT22;6746;50.892;4.064;2022-08-01T02:01:46;20.20;99.90
13354;DHT22;6746;50.892;4.064;2022-08-01T02:04:24;20.20;99.90
13354;DHT22;6746;50.892;4.064;2022-08-01T02:07:02;20.20;99.90
13354;DHT22;6746;50.892;4.064;2022-08-01T02:09:45;20.20;99.90
13354;DHT22;6746;50.892;4.064;2022-08-01T02:12:24;20.20;99.90
13354;DHT22;6746;50.892;4.064;2022-08-01T02:15:05;20.20;99.90
13354;DHT22;6746;50.892;4.064;2022-08-01T02:17:44;20.20;99.90
13354;DHT22;6746;50.892;4.064;2022-08-01T02:20:31;20.20;99.90
13354;DHT22;6746;50.892;4.064;2022-08-01T02:23:19;20.20;99.90
13354;DHT22;6746;50.892;4.064;2022-08-01T02:26:00;20.20;99.90
13354;DHT22;6746;50.892;4.064;2022-08-01T02:28:41;20.10;99.90
13354;DHT22;6746;50.892;4.064;2022-08-01T02:31:22;20.20;99.90
13354;DHT22;6746;50.892;4.064;2022-08-01T02:34:01;20.10;99.90
13354;DHT22;6746;50.892;4.064;2022-08-01T02:36:47;20.10;99.90
13354;DHT22;6746;50.892;4.064;2022-08-01T02:39:26;20.00;99.90
13354;DHT22;6746;50.892;4.064;2022-08-01T02:42:04;19.90;99.90
13354;DHT22;6746;50.892;4.064;2022-08-01T02:44:45;19.90;99.90
13354;DHT22;6746;50.892;4.064;2022-08-01T02:47:23;19.80;99.90
13354;DHT22;6746;50.892;4.064;2022-08-01T02:50:07;19.80;99.90
13354;DHT22;6746;50.892;4.064;2022-08-01T02:52:46;19.80;99.90
13354;DHT22;6746;50.892;4.064;2022-08-01T02:55:23;19.80;99.90
13354;DHT22;6746;50.892;4.064;2022-08-01T02:58:02;19.80;99.90
13354;DHT22;6746;50.892;4.064;2022-08-01T03:00:43;19.80;99.90
13354;DHT22;6746;50.892;4.064;2022-08-01T03:03:21;19.70;99.90
13354;DHT22;6746;50.892;4.064;2022-08-01T03:06:02;19.70;99.90
13354;DHT22;6746;50.892;4.064;2022-08-01T03:08:40;19.70;99.90
13354;DHT22;6746;50.892;4.064;2022-08-01T03:11:21;19.70;99.90
13354;DHT22;6746;50.892;4.064;2022-08-01T03:13:59;19.70;99.90
13354;DHT22;6746;50.892;4.064;2022-08-01T03:16:41;19.70;99.90
13354;DHT22;6746;50.892;4.064;2022-08-01T03:19:18;19.70;99.90
13354;DHT22;6746;50.892;4.064;2022-08-01T03:21:56;19.70;99.90
13354;DHT22;6746;50.892;4.064;2022-08-01T03:24:35;19.60;99.90
13354;DHT22;6746;50.892;4.064;2022-08-01T03:27:15;19.60;99.90
13354;DHT22;6746;50.892;4.064;2022-08-01T03:29:54;19.60;99.90
13354;DHT22;6746;50.892;4.064;2022-08-01T03:32:41;18.50;99.90
13354;DHT22;6746;50.892;4.064;2022-08-01T03:35:30;19.60;99.90
13354;DHT22;6746;50.892;4.064;2022-08-01T03:38:18;19.50;99.90
13354;DHT22;6746;50.892;4.064;2022-08-01T03:41:09;19.40;99.90
13354;DHT22;6746;50.892;4.064;2022-08-01T03:43:57;19.40;99.90
13354;DHT22;6746;50.892;4.064;2022-08-01T03:46:54;19.30;99.90
13354;DHT22;6746;50.892;4.064;2022-08-01T03:49:46;19.30;99.90
13354;DHT22;6746;50.892;4.064;2022-08-01T03:52:24;19.30;99.90
13354;DHT22;6746;50.892;4.064;2022-08-01T03:55:03;19.30;99.90
13354;DHT22;6746;50.892;4.064;2022-08-01T03:57:50;19.20;99.90
13354;DHT22;6746;50.892;4.064;2022-08-01T04:00:29;19.20;99.90
13354;DHT22;6746;50.892;4.064;2022-08-01T04:03:07;19.20;99.90
13354;DHT22;6746;50.892;4.064;2022-08-01T04:05:48;19.20;99.90
13354;DHT22;6746;50.892;4.064;2022-08-01T04:08:35;19.20;99.90
13354;DHT22;6746;50.892;4.064;2022-08-01T04:11:13;19.20;99.90
13354;DHT22;6746;50.892;4.064;2022-08-01T04:13:51;19.20;99.90
13354;DHT22;6746;50.892;4.064;2022-08-01T04:16:32;19.30;99.90
13354;DHT22;6746;50.892;4.064;2022-08-01T04:19:10;19.30;99.90
13354;DHT22;6746;50.892;4.064;2022-08-01T04:21:48;19.30;99.90
13354;DHT22;6746;50.892;4.064;2022-08-01T04:24:27;19.40;99.90
13354;DHT22;6746;50.892;4.064;2022-08-01T04:27:17;19.40;99.90
13354;DHT22;6746;50.892;4.064;2022-08-01T04:30:03;19.40;99.90
13354;DHT22;6746;50.892;4.064;2022-08-01T04:32:51;19.30;99.90
13354;DHT22;6746;50.892;4.064;2022-08-01T04:35:39;19.20;99.90
13354;DHT22;6746;50.892;4.064;2022-08-01T04:38:19;19.30;99.90
13354;DHT22;6746;50.892;4.064;2022-08-01T04:40:56;19.30;99.90
13354;DHT22;6746;50.892;4.064;2022-08-01T04:43:29;19.30;99.90
13354;DHT22;6746;50.892;4.064;2022-08-01T04:45:58;19.30;99.90
13354;DHT22;6746;50.892;4.064;2022-08-01T04:48:37;19.40;99.90
13354;DHT22;6746;50.892;4.064;2022-08-01T04:51:15;19.40;99.90
13354;DHT22;6746;50.892;4.064;2022-08-01T04:53:53;19.40;99.90
13354;DHT22;6746;50.892;4.064;2022-08-01T04:56:31;19.40;99.90
13354;DHT22;6746;50.892;4.064;2022-08-01T04:59:19;19.50;99.90
13354;DHT22;6746;50.892;4.064;2022-08-01T05:02:18;19.60;99.90
13354;DHT22;6746;50.892;4.064;2022-08-01T05:04:49;19.50;99.90
13354;DHT22;6746;50.892;4.064;2022-08-01T05:07:18;19.60;99.90
13354;DHT22;6746;50.892;4.064;2022-08-01T05:09:49;19.60;99.90
13354;DHT22;6746;50.892;4.064;2022-08-01T05:12:18;19.60;99.90
13354;DHT22;6746;50.892;4.064;2022-08-01T05:14:47;19.70;99.90
13354;DHT22;6746;50.892;4.064;2022-08-01T05:17:16;19.70;99.90
13354;DHT22;6746;50.892;4.064;2022-08-01T05:19:55;19.60;99.90
13354;DHT22;6746;50.892;4.064;2022-08-01T05:22:28;19.70;99.90
13354;DHT22;6746;50.892;4.064;2022-08-01T05:24:57;19.80;99.90
13354;DHT22;6746;50.892;4.064;2022-08-01T05:27:34;19.80;99.90
13354;DHT22;6746;50.892;4.064;2022-08-01T05:30:09;19.80;99.90
13354;DHT22;6746;50.892;4.064;2022-08-01T05:32:41;19.90;99.90
13354;DHT22;6746;50.892;4.064;2022-08-01T05:35:10;19.80;99.90
13354;DHT22;6746;50.892;4.064;2022-08-01T05:37:41;19.90;99.90
13354;DHT22;6746;50.892;4.064;2022-08-01T05:40:11;19.80;99.90
13354;DHT22;6746;50.892;4.064;2022-08-01T05:42:43;19.90;99.90
13354;DHT22;6746;50.892;4.064;2022-08-01T05:45:12;19.90;99.90
13354;DHT22;6746;50.892;4.064;2022-08-01T05:47:50;20.00;99.90
13354;DHT22;6746;50.892;4.064;2022-08-01T05:50:29;20.00;99.90
13354;DHT22;6746;50.892;4.064;2022-08-01T05:53:17;19.90;99.90
13354;DHT22;6746;50.892;4.064;2022-08-01T05:55:51;19.90;99.90
13354;DHT22;6746;50.892;4.064;2022-08-01T05:58:19;19.90;99.90
13354;DHT22;6746;50.892;4.064;2022-08-01T06:00:58;19.90;99.90
13354;DHT22;6746;50.892;4.064;2022-08-01T06:03:36;20.00;99.90
13354;DHT22;6746;50.892;4.064;2022-08-01T06:06:14;19.90;99.90
13354;DHT22;6746;50.892;4.064;2022-08-01T06:08:52;19.90;99.90
13354;DHT22;6746;50.892;4.064;2022-08-01T06:11:30;20.10;99.90
13354;DHT22;6746;50.892;4.064;2022-08-01T06:14:01;20.20;99.90
13354;DHT22;6746;50.892;4.064;2022-08-01T06:16:29;20.20;99.90
13354;DHT22;6746;50.892;4.064;2022-08-01T06:19:06;20.30;99.90
13354;DHT22;6746;50.892;4.064;2022-08-01T06:21:35;20.30;99.90
13354;DHT22;6746;50.892;4.064;2022-08-01T06:24:06;20.60;99.90
13354;DHT22;6746;50.892;4.064;2022-08-01T06:26:35;20.60;99.90
13354;DHT22;6746;50.892;4.064;2022-08-01T06:29:14;20.70;99.90
13354;DHT22;6746;50.892;4.064;2022-08-01T06:31:44;20.60;99.90
13354;DHT22;6746;50.892;4.064;2022-08-01T06:34:16;20.70;99.90
13354;DHT22;6746;50.892;4.064;2022-08-01T06:36:45;20.70;99.90
13354;DHT22;6746;50.892;4.064;2022-08-01T06:39:19;20.90;99.90
13354;DHT22;6746;50.892;4.064;2022-08-01T06:41:48;21.10;99.90
13354;DHT22;6746;50.892;4.064;2022-08-01T06:44:28;21.20;99.90
13354;DHT22;6746;50.892;4.064;2022-08-01T06:46:56;21.30;99.90
13354;DHT22;6746;50.892;4.064;2022-08-01T06:49:35;21.40;99.90
13354;DHT22;6746;50.892;4.064;2022-08-01T06:52:13;21.40;99.90
13354;DHT22;6746;50.892;4.064;2022-08-01T06:54:51;21.30;99.90
13354;DHT22;6746;50.892;4.064;2022-08-01T06:57:23;21.40;99.90
13354;DHT22;6746;50.892;4.064;2022-08-01T06:59:52;21.30;99.90
13354;DHT22;6746;50.892;4.064;2022-08-01T07:02:30;21.30;99.90
13354;DHT22;6746;50.892;4.064;2022-08-01T07:05:09;21.40;99.90
13354;DHT22;6746;50.892;4.064;2022-08-01T07:07:38;21.50;99.90
13354;DHT22;6746;50.892;4.064;2022-08-01T07:10:16;21.50;99.90
13354;DHT22;6746;50.892;4.064;2022-08-01T07:12:44;21.40;99.90
13354;DHT22;6746;50.892;4.064;2022-08-01T07:15:13;21.40;99.90
13354;DHT22;6746;50.892;4.064;2022-08-01T07:17:42;21.30;99.90
13354;DHT22;6746;50.892;4.064;2022-08-01T07:20:11;21.40;99.90
13354;DHT22;6746;50.892;4.064;2022-08-01T07:22:40;21.60;99.90
13354;DHT22;6746;50.892;4.064;2022-08-01T07:25:11;21.70;99.90
13354;DHT22;6746;50.892;4.064;2022-08-01T07:27:40;21.80;99.90
13354;DHT22;6746;50.892;4.064;2022-08-01T07:30:09;21.90;99.90
13354;DHT22;6746;50.892;4.064;2022-08-01T07:32:41;22.00;99.90
13354;DHT22;6746;50.892;4.064;2022-08-01T07:35:10;22.30;99.90
13354;DHT22;6746;50.892;4.064;2022-08-01T07:37:47;22.50;99.90
13354;DHT22;6746;50.892;4.064;2022-08-01T07:40:16;22.50;99.90
13354;DHT22;6746;50.892;4.064;2022-08-01T07:42:47;22.40;99.90
13354;DHT22;6746;50.892;4.064;2022-08-01T07:45:16;22.30;99.90
13354;DHT22;6746;50.892;4.064;2022-08-01T07:47:55;21.90;99.90
13354;DHT22;6746;50.892;4.064;2022-08-01T07:50:26;22.00;99.90
13354;DHT22;6746;50.892;4.064;2022-08-01T07:52:55;21.70;99.90
13354;DHT22;6746;50.892;4.064;2022-08-01T07:55:24;21.50;99.90
13354;DHT22;6746;50.892;4.064;2022-08-01T07:57:56;21.70;99.90
13354;DHT22;6746;50.892;4.064;2022-08-01T08:00:34;21.80;99.90
13354;DHT22;6746;50.892;4.064;2022-08-01T08:03:12;22.00;99.90
13354;DHT22;6746;50.892;4.064;2022-08-01T08:06:00;22.00;99.90
13354;DHT22;6746;50.892;4.064;2022-08-01T08:08:48;22.20;99.90
13354;DHT22;6746;50.892;4.064;2022-08-01T08:11:26;22.40;99.90
13354;DHT22;6746;50.892;4.064;2022-08-01T08:13:58;22.60;99.90
13354;DHT22;6746;50.892;4.064;2022-08-01T08:16:26;22.70;99.90
13354;DHT22;6746;50.892;4.064;2022-08-01T08:19:05;23.00;99.90
13354;DHT22;6746;50.892;4.064;2022-08-01T08:21:43;23.10;99.90
13354;DHT22;6746;50.892;4.064;2022-08-01T08:24:21;23.40;99.90
13354;DHT22;6746;50.892;4.064;2022-08-01T08:26:54;23.60;99.90
13354;DHT22;6746;50.892;4.064;2022-08-01T08:29:23;23.50;99.90
13354;DHT22;6746;50.892;4.064;2022-08-01T08:32:01;23.20;99.90
13354;DHT22;6746;50.892;4.064;2022-08-01T08:34:39;22.90;99.90
13354;DHT22;6746;50.892;4.064;2022-08-01T08:37:08;22.80;99.90
13354;DHT22;6746;50.892;4.064;2022-08-01T08:39:38;23.00;99.90
13354;DHT22;6746;50.892;4.064;2022-08-01T08:42:15;23.30;99.90
13354;DHT22;6746;50.892;4.064;2022-08-01T08:44:44;23.40;99.90
13354;DHT22;6746;50.892;4.064;2022-08-01T08:47:23;23.50;99.90
13354;DHT22;6746;50.892;4.064;2022-08-01T08:49:59;23.80;99.90
13354;DHT22;6746;50.892;4.064;2022-08-01T08:52:28;24.30;99.90
13354;DHT22;6746;50.892;4.064;2022-08-01T08:54:57;24.50;99.90
13354;DHT22;6746;50.892;4.064;2022-08-01T08:57:26;24.70;99.90
13354;DHT22;6746;50.892;4.064;2022-08-01T09:00:04;25.20;99.90
13354;DHT22;6746;50.892;4.064;2022-08-01T09:02:44;25.50;99.90
13354;DHT22;6746;50.892;4.064;2022-08-01T09:05:12;25.40;99.90
13354;DHT22;6746;50.892;4.064;2022-08-01T09:07:50;25.60;99.90
13354;DHT22;6746;50.892;4.064;2022-08-01T09:10:21;25.60;99.90
13354;DHT22;6746;50.892;4.064;2022-08-01T09:13:09;26.10;99.90
13354;DHT22;6746;50.892;4.064;2022-08-01T09:15:41;26.20;99.90
13354;DHT22;6746;50.892;4.064;2022-08-01T09:18:25;25.70;99.90
13354;DHT22;6746;50.892;4.064;2022-08-01T09:21:15;25.30;99.90
13354;DHT22;6746;50.892;4.064;2022-08-01T09:23:50;24.90;99.90
13354;DHT22;6746;50.892;4.064;2022-08-01T09:26:19;24.90;99.90
13354;DHT22;6746;50.892;4.064;2022-08-01T09:28:47;25.10;99.90
13354;DHT22;6746;50.892;4.064;2022-08-01T09:31:18;25.30;99.90
13354;DHT22;6746;50.892;4.064;2022-08-01T09:33:54;25.30;99.90
13354;DHT22;6746;50.892;4.064;2022-08-01T09:36:48;25.20;99.90
13354;DHT22;6746;50.892;4.064;2022-08-01T09:39:22;25.40;99.90
13354;DHT22;6746;50.892;4.064;2022-08-01T09:42:18;25.70;99.90
13354;DHT22;6746;50.892;4.064;2022-08-01T09:44:56;26.30;99.90
13354;DHT22;6746;50.892;4.064;2022-08-01T09:47:40;26.10;99.90
13354;DHT22;6746;50.892;4.064;2022-08-01T09:50:11;26.40;99.90
13354;DHT22;6746;50.892;4.064;2022-08-01T09:52:40;26.40;99.90
13354;DHT22;6746;50.892;4.064;2022-08-01T09:55:20;26.40;99.90
13354;DHT22;6746;50.892;4.064;2022-08-01T09:57:54;26.50;99.90
13354;DHT22;6746;50.892;4.064;2022-08-01T10:00:22;27.10;99.90
13354;DHT22;6746;50.892;4.064;2022-08-01T10:03:22;27.50;99.90
13354;DHT22;6746;50.892;4.064;2022-08-01T10:06:00;27.30;99.90
13354;DHT22;6746;50.892;4.064;2022-08-01T10:08:45;26.90;99.90
13354;DHT22;6746;50.892;4.064;2022-08-01T10:11:14;26.50;99.90
13354;DHT22;6746;50.892;4.064;2022-08-01T10:13:52;26.50;99.90
13354;DHT22;6746;50.892;4.064;2022-08-01T10:16:40;26.50;99.90
13354;DHT22;6746;50.892;4.064;2022-08-01T10:19:29;26.20;99.90
13354;DHT22;6746;50.892;4.064;2022-08-01T10:22:07;26.20;99.90
13354;DHT22;6746;50.892;4.064;2022-08-01T10:24:35;26.30;99.90
13354;DHT22;6746;50.892;4.064;2022-08-01T10:27:12;26.50;99.90
13354;DHT22;6746;50.892;4.064;2022-08-01T10:29:58;26.80;99.90
13354;DHT22;6746;50.892;4.064;2022-08-01T10:32:26;26.80;99.90
13354;DHT22;6746;50.892;4.064;2022-08-01T10:35:06;26.50;99.90
13354;DHT22;6746;50.892;4.064;2022-08-01T10:37:34;26.70;99.90
13354;DHT22;6746;50.892;4.064;2022-08-01T10:40:15;26.60;99.90
13354;DHT22;6746;50.892;4.064;2022-08-01T10:42:49;27.00;99.90
13354;DHT22;6746;50.892;4.064;2022-08-01T10:45:17;27.00;99.90
13354;DHT22;6746;50.892;4.064;2022-08-01T10:48:27;27.20;99.90
13354;DHT22;6746;50.892;4.064;2022-08-01T10:51:01;26.90;99.90
13354;DHT22;6746;50.892;4.064;2022-08-01T10:53:29;27.00;99.90
13354;DHT22;6746;50.892;4.064;2022-08-01T10:56:01;26.90;99.90
13354;DHT22;6746;50.892;4.064;2022-08-01T10:58:38;26.70;99.90
13354;DHT22;6746;50.892;4.064;2022-08-01T11:11:58;27.00;99.90
13354;DHT22;6746;50.892;4.064;2022-08-01T11:17:44;27.60;99.90
13354;DHT22;6746;50.892;4.064;2022-08-01T11:20:35;27.40;99.90
13354;DHT22;6746;50.892;4.064;2022-08-01T11:23:21;27.60;99.90
13354;DHT22;6746;50.892;4.064;2022-08-01T11:28:29;27.90;99.90
13354;DHT22;6746;50.892;4.064;2022-08-01T11:34:07;27.60;99.90
13354;DHT22;6746;50.892;4.064;2022-08-01T11:37:42;27.10;99.90
13354;DHT22;6746;50.892;4.064;2022-08-01T11:39:51;27.10;99.90
13354;DHT22;6746;50.892;4.064;2022-08-01T11:42:22;27.50;99.90
13354;DHT22;6746;50.892;4.064;2022-08-01T11:45:01;28.00;99.90
13354;DHT22;6746;50.892;4.064;2022-08-01T11:47:43;28.40;99.90
13354;DHT22;6746;50.892;4.064;2022-08-01T11:50:07;28.60;99.90
13354;DHT22;6746;50.892;4.064;2022-08-01T11:52:50;28.60;99.90
13354;DHT22;6746;50.892;4.064;2022-08-01T11:55:24;28.90;99.90
13354;DHT22;6746;50.892;4.064;2022-08-01T11:58:04;28.80;99.90
13354;DHT22;6746;50.892;4.064;2022-08-01T12:00:41;28.70;99.90
13354;DHT22;6746;50.892;4.064;2022-08-01T12:03:25;28.50;99.90
13354;DHT22;6746;50.892;4.064;2022-08-01T12:06:06;28.20;99.90
13354;DHT22;6746;50.892;4.064;2022-08-01T12:08:49;27.80;99.90
13354;DHT22;6746;50.892;4.064;2022-08-01T12:11:26;27.80;99.90
13354;DHT22;6746;50.892;4.064;2022-08-01T12:13:58;27.80;99.90
13354;DHT22;6746;50.892;4.064;2022-08-01T12:16:26;28.10;99.90
13354;DHT22;6746;50.892;4.064;2022-08-01T12:19:05;28.10;99.90
13354;DHT22;6746;50.892;4.064;2022-08-01T12:21:39;28.30;99.90
13354;DHT22;6746;50.892;4.064;2022-08-01T12:24:07;28.20;99.90
13354;DHT22;6746;50.892;4.064;2022-08-01T12:26:46;28.10;99.90
13354;DHT22;6746;50.892;4.064;2022-08-01T12:29:33;27.90;99.90
13354;DHT22;6746;50.892;4.064;2022-08-01T12:37:30;28.20;99.90
13354;DHT22;6746;50.892;4.064;2022-08-01T12:40:28;28.20;99.90
13354;DHT22;6746;50.892;4.064;2022-08-01T12:42:57;28.00;99.90
13354;DHT22;6746;50.892;4.064;2022-08-01T12:45:32;27.70;99.90
13354;DHT22;6746;50.892;4.064;2022-08-01T12:47:57;27.70;99.90
13354;DHT22;6746;50.892;4.064;2022-08-01T12:50:29;27.80;99.90
13354;DHT22;6746;50.892;4.064;2022-08-01T12:53:01;27.70;99.90
13354;DHT22;6746;50.892;4.064;2022-08-01T12:55:30;27.50;99.90
13354;DHT22;6746;50.892;4.064;2022-08-01T12:58:05;27.40;99.90
13354;DHT22;6746;50.892;4.064;2022-08-01T13:00:44;27.40;99.90
13354;DHT22;6746;50.892;4.064;2022-08-01T13:03:21;27.10;99.90
13354;DHT22;6746;50.892;4.064;2022-08-01T13:06:09;27.10;99.90
13354;DHT22;6746;50.892;4.064;2022-08-01T13:08:32;27.10;99.90
13354;DHT22;6746;50.892;4.064;2022-08-01T13:11:10;27.40;99.90
13354;DHT22;6746;50.892;4.064;2022-08-01T13:13:39;27.30;99.90
13354;DHT22;6746;50.892;4.064;2022-08-01T13:16:17;27.10;99.90
13354;DHT22;6746;50.892;4.064;2022-08-01T13:18:55;26.80;99.90
13354;DHT22;6746;50.892;4.064;2022-08-01T13:21:33;26.70;99.90
13354;DHT22;6746;50.892;4.064;2022-08-01T13:24:11;26.50;99.90
13354;DHT22;6746;50.892;4.064;2022-08-01T13:29:39;26.60;99.90
13354;DHT22;6746;50.892;4.064;2022-08-01T13:32:19;26.80;99.90
13354;DHT22;6746;50.892;4.064;2022-08-01T13:35:00;26.90;99.90
13354;DHT22;6746;50.892;4.064;2022-08-01T13:37:40;27.00;99.90
13354;DHT22;6746;50.892;4.064;2022-08-01T13:40:22;27.20;99.90
13354;DHT22;6746;50.892;4.064;2022-08-01T13:42:44;27.20;99.90
13354;DHT22;6746;50.892;4.064;2022-08-01T13:45:22;27.00;99.90
13354;DHT22;6746;50.892;4.064;2022-08-01T13:48:01;26.80;99.90
13354;DHT22;6746;50.892;4.064;2022-08-01T13:50:38;26.60;99.90
13354;DHT22;6746;50.892;4.064;2022-08-01T13:53:07;26.70;99.90
13354;DHT22;6746;50.892;4.064;2022-08-01T13:55:36;26.70;99.90
13354;DHT22;6746;50.892;4.064;2022-08-01T13:58:15;26.90;99.90
13354;DHT22;6746;50.892;4.064;2022-08-01T14:00:43;27.10;99.90
13354;DHT22;6746;50.892;4.064;2022-08-01T14:03:12;27.10;99.90
13354;DHT22;6746;50.892;4.064;2022-08-01T14:05:40;27.30;99.90
13354;DHT22;6746;50.892;4.064;2022-08-01T14:08:09;27.50;99.90
13354;DHT22;6746;50.892;4.064;2022-08-01T14:10:48;27.70;99.90
13354;DHT22;6746;50.892;4.064;2022-08-01T14:13:19;27.50;99.90
13354;DHT22;6746;50.892;4.064;2022-08-01T14:15:48;27.60;99.90
13354;DHT22;6746;50.892;4.064;2022-08-01T14:18:22;27.60;99.90
13354;DHT22;6746;50.892;4.064;2022-08-01T14:20:51;27.40;99.90
13354;DHT22;6746;50.892;4.064;2022-08-01T14:23:29;27.00;99.90
13354;DHT22;6746;50.892;4.064;2022-08-01T14:25:58;26.80;99.90
13354;DHT22;6746;50.892;4.064;2022-08-01T14:28:29;26.40;99.90
13354;DHT22;6746;50.892;4.064;2022-08-01T14:31:08;26.70;99.90
13354;DHT22;6746;50.892;4.064;2022-08-01T14:33:39;27.10;99.90
13354;DHT22;6746;50.892;4.064;2022-08-01T14:36:08;27.20;99.90
13354;DHT22;6746;50.892;4.064;2022-08-01T14:38:40;27.20;99.90
13354;DHT22;6746;50.892;4.064;2022-08-01T14:41:08;26.90;99.90
13354;DHT22;6746;50.892;4.064;2022-08-01T14:43:43;26.70;99.90
13354;DHT22;6746;50.892;4.064;2022-08-01T14:46:11;26.60;99.90
13354;DHT22;6746;50.892;4.064;2022-08-01T14:48:50;26.60;99.90
13354;DHT22;6746;50.892;4.064;2022-08-01T14:51:21;26.50;99.90
13354;DHT22;6746;50.892;4.064;2022-08-01T14:53:49;26.40;99.90
13354;DHT22;6746;50.892;4.064;2022-08-01T14:56:28;26.40;99.90
13354;DHT22;6746;50.892;4.064;2022-08-01T14:58:56;26.30;99.90
13354;DHT22;6746;50.892;4.064;2022-08-01T15:01:25;26.60;99.90
13354;DHT22;6746;50.892;4.064;2022-08-01T15:03:54;26.70;99.90
13354;DHT22;6746;50.892;4.064;2022-08-01T15:06:23;26.90;99.90
13354;DHT22;6746;50.892;4.064;2022-08-01T15:09:00;27.00;99.90
13354;DHT22;6746;50.892;4.064;2022-08-01T15:11:29;27.20;99.90
13354;DHT22;6746;50.892;4.064;2022-08-01T15:14:07;27.20;99.90
13354;DHT22;6746;50.892;4.064;2022-08-01T15:16:59;27.30;99.90
13354;DHT22;6746;50.892;4.064;2022-08-01T15:19:27;27.30;99.90
13354;DHT22;6746;50.892;4.064;2022-08-01T15:21:59;27.50;99.90
13354;DHT22;6746;50.892;4.064;2022-08-01T15:24:29;27.50;99.90
13354;DHT22;6746;50.892;4.064;2022-08-01T15:26:58;27.60;99.90
13354;DHT22;6746;50.892;4.064;2022-08-01T15:29:27;27.60;99.90
13354;DHT22;6746;50.892;4.064;2022-08-01T15:31:58;27.70;99.90
13354;DHT22;6746;50.892;4.064;2022-08-01T15:34:27;27.60;99.90
13354;DHT22;6746;50.892;4.064;2022-08-01T15:37:06;27.60;99.90
13354;DHT22;6746;50.892;4.064;2022-08-01T15:39:44;27.60;99.90
13354;DHT22;6746;50.892;4.064;2022-08-01T15:42:22;27.50;99.90
13354;DHT22;6746;50.892;4.064;2022-08-01T15:44:52;27.20;99.90
13354;DHT22;6746;50.892;4.064;2022-08-01T15:47:21;27.00;99.90
13354;DHT22;6746;50.892;4.064;2022-08-01T15:49:52;26.90;99.90
13354;DHT22;6746;50.892;4.064;2022-08-01T15:52:21;26.70;99.90
13354;DHT22;6746;50.892;4.064;2022-08-01T15:54:50;26.40;99.90
13354;DHT22;6746;50.892;4.064;2022-08-01T15:57:19;26.40;99.90
13354;DHT22;6746;50.892;4.064;2022-08-01T15:59:51;26.50;99.90
13354;DHT22;6746;50.892;4.064;2022-08-01T16:02:20;26.40;99.90
13354;DHT22;6746;50.892;4.064;2022-08-01T16:05:00;26.50;99.90
13354;DHT22;6746;50.892;4.064;2022-08-01T16:07:29;26.50;99.90
13354;DHT22;6746;50.892;4.064;2022-08-01T16:10:07;26.50;99.90
13354;DHT22;6746;50.892;4.064;2022-08-01T16:12:46;26.40;99.90
13354;DHT22;6746;50.892;4.064;2022-08-01T16:15:25;26.40;99.90
13354;DHT22;6746;50.892;4.064;2022-08-01T16:18:01;26.50;99.90
13354;DHT22;6746;50.892;4.064;2022-08-01T16:20:30;26.40;99.90
13354;DHT22;6746;50.892;4.064;2022-08-01T16:22:58;26.30;99.90
13354;DHT22;6746;50.892;4.064;2022-08-01T16:25:30;26.40;99.90
13354;DHT22;6746;50.892;4.064;2022-08-01T16:27:59;26.50;99.90
13354;DHT22;6746;50.892;4.064;2022-08-01T16:30:28;26.40;99.90
13354;DHT22;6746;50.892;4.064;2022-08-01T16:33:00;26.40;99.90
13354;DHT22;6746;50.892;4.064;2022-08-01T16:35:31;26.40;99.90
13354;DHT22;6746;50.892;4.064;2022-08-01T16:38:10;26.30;99.90
13354;DHT22;6746;50.892;4.064;2022-08-01T16:40:48;26.50;99.90
13354;DHT22;6746;50.892;4.064;2022-08-01T16:43:26;26.30;99.90
13354;DHT22;6746;50.892;4.064;2022-08-01T16:46:14;26.40;99.90
13354;DHT22;6746;50.892;4.064;2022-08-01T16:48:43;26.40;99.90
13354;DHT22;6746;50.892;4.064;2022-08-01T16:51:18;26.40;99.90
13354;DHT22;6746;50.892;4.064;2022-08-01T16:53:54;26.50;99.90
13354;DHT22;6746;50.892;4.064;2022-08-01T16:56:23;26.50;99.90
13354;DHT22;6746;50.892;4.064;2022-08-01T16:58:52;26.50;99.90
13354;DHT22;6746;50.892;4.064;2022-08-01T17:01:21;26.50;99.90
13354;DHT22;6746;50.892;4.064;2022-08-01T17:03:59;26.40;99.90
13354;DHT22;6746;50.892;4.064;2022-08-01T17:06:37;26.50;99.90
13354;DHT22;6746;50.892;4.064;2022-08-01T17:09:09;26.50;99.90
13354;DHT22;6746;50.892;4.064;2022-08-01T17:11:37;26.30;99.90
13354;DHT22;6746;50.892;4.064;2022-08-01T17:14:08;26.30;99.90
13354;DHT22;6746;50.892;4.064;2022-08-01T17:16:40;26.30;99.90
13354;DHT22;6746;50.892;4.064;2022-08-01T17:19:08;26.30;99.90
13354;DHT22;6746;50.892;4.064;2022-08-01T17:21:37;26.20;99.90
13354;DHT22;6746;50.892;4.064;2022-08-01T17:24:14;26.10;99.90